createdAt,value
2022-11-11T00:00:16.853Z,93.59
2022-11-11T00:03:33.462Z,93.68
2022-11-11T00:06:48.680Z,93.64
2022-11-11T00:10:05.261Z,93.70
2022-11-11T00:13:20.978Z,93.86
2022-11-11T00:16:54.940Z,94.64
2022-11-11T00:20:32.297Z,94.93
2022-11-11T00:24:09.150Z,94.93
2022-11-11T00:27:24.848Z,95.84
2022-11-11T00:30:40.815Z,94.04
2022-11-11T00:33:56.897Z,92.81
2022-11-11T00:37:12.908Z,92.37
2022-11-11T00:40:28.824Z,91.89
2022-11-11T00:43:45.608Z,90.85
2022-11-11T00:47:21.213Z,91.00
2022-11-11T00:50:59.007Z,90.22
2022-11-11T00:54:14.977Z,91.39
2022-11-11T00:57:30.768Z,91.77
2022-11-11T01:00:45.948Z,91.35
2022-11-11T01:04:01.769Z,92.14
2022-11-11T01:07:16.831Z,93.55
2022-11-11T01:10:38.799Z,94.02
2022-11-11T01:13:54.857Z,95.45
2022-11-11T01:17:11.067Z,93.87
2022-11-11T01:20:26.924Z,92.42
2022-11-11T01:23:42.995Z,91.37
2022-11-11T01:26:59.209Z,91.21
2022-11-11T01:30:14.875Z,92.46
2022-11-11T01:33:31.018Z,92.27
2022-11-11T01:36:46.593Z,93.54
2022-11-11T01:40:03.620Z,94.80
2022-11-11T01:43:22.547Z,94.07
2022-11-11T01:46:49.511Z,97.09
2022-11-11T01:50:05.360Z,96.76
2022-11-11T01:53:21.391Z,96.03
2022-11-11T01:56:36.837Z,97.06
2022-11-11T02:00:00.927Z,98.72
2022-11-11T02:03:16.913Z,98.21
2022-11-11T02:06:33.301Z,98.07
2022-11-11T02:09:49.043Z,98.73
2022-11-11T02:13:25.347Z,98.12
2022-11-11T02:16:41.754Z,98.68
2022-11-11T02:19:59.070Z,100.00
2022-11-11T02:23:41.187Z,100.00
2022-11-11T02:26:58.525Z,100.00
2022-11-11T02:30:18.105Z,100.00
2022-11-11T02:33:34.005Z,100.00
2022-11-11T02:36:49.219Z,100.00
2022-11-11T02:40:07.660Z,100.00
2022-11-11T02:43:23.193Z,100.00
2022-11-11T02:46:39.125Z,100.00
2022-11-11T02:49:55.060Z,100.00
2022-11-11T02:53:11.217Z,100.00
2022-11-11T02:56:45.575Z,100.00
2022-11-11T03:00:02.594Z,100.00
2022-11-11T03:03:19.436Z,100.00
2022-11-11T03:06:34.669Z,100.00
2022-11-11T03:09:49.845Z,100.00
2022-11-11T03:13:05.948Z,100.00
2022-11-11T03:16:40.738Z,100.00
2022-11-11T03:20:15.808Z,98.79
2022-11-11T03:23:31.867Z,99.00
2022-11-11T03:26:48.287Z,100.00
2022-11-11T03:30:04.069Z,100.00
2022-11-11T03:33:19.780Z,100.00
2022-11-11T03:36:55.657Z,99.35
2022-11-11T03:40:11.272Z,99.37
2022-11-11T03:43:28.574Z,99.73
2022-11-11T03:46:43.765Z,98.44
2022-11-11T03:49:59.994Z,98.27
2022-11-11T03:53:17.841Z,99.43
2022-11-11T03:56:33.006Z,97.28
2022-11-11T03:59:49.071Z,97.43
2022-11-11T04:03:33.991Z,98.01
2022-11-11T04:07:08.531Z,97.78
2022-11-11T04:10:23.906Z,97.89
2022-11-11T04:13:59.345Z,97.43
2022-11-11T04:17:14.911Z,98.25
2022-11-11T04:20:49.420Z,97.22
2022-11-11T04:24:25.157Z,97.30
2022-11-11T04:27:40.846Z,95.97
2022-11-11T04:30:56.636Z,96.41
2022-11-11T04:34:12.229Z,98.30
2022-11-11T04:37:30.654Z,100.00
2022-11-11T04:41:04.077Z,99.22
2022-11-11T04:44:37.687Z,98.75
2022-11-11T04:48:03.252Z,98.40
2022-11-11T04:51:19.051Z,100.00
2022-11-11T04:54:55.087Z,100.00
2022-11-11T04:58:11.241Z,100.00
2022-11-11T05:01:45.221Z,100.00
2022-11-11T05:05:01.209Z,100.00
2022-11-11T05:08:49.170Z,100.00
2022-11-11T05:12:05.278Z,100.00
2022-11-11T05:15:39.191Z,100.00
2022-11-11T05:19:13.683Z,100.00
2022-11-11T05:22:43.446Z,100.00
2022-11-11T05:25:58.768Z,100.00
2022-11-11T05:29:14.025Z,100.00
2022-11-11T05:32:30.325Z,100.00
2022-11-11T05:35:45.765Z,100.00
2022-11-11T05:39:02.248Z,100.00
2022-11-11T05:42:17.898Z,100.00
2022-11-11T05:45:33.096Z,100.00
2022-11-11T05:49:07.594Z,100.00
2022-11-11T05:52:23.018Z,100.00
2022-11-11T05:55:39.207Z,100.00
2022-11-11T05:58:55.176Z,100.00
2022-11-11T06:02:11.381Z,100.00
2022-11-11T06:05:27.301Z,100.00
2022-11-11T06:08:43.206Z,100.00
2022-11-11T06:11:59.068Z,100.00
2022-11-11T06:15:14.988Z,100.00
2022-11-11T06:18:31.446Z,100.00
2022-11-11T06:22:00.935Z,100.00
2022-11-11T06:25:35.388Z,100.00
2022-11-11T06:28:52.802Z,100.00
2022-11-11T06:32:08.053Z,100.00
2022-11-11T06:35:23.152Z,100.00
2022-11-11T06:38:39.464Z,100.00
2022-11-11T06:41:56.161Z,100.00
2022-11-11T06:45:12.242Z,100.00
2022-11-11T06:48:28.550Z,100.00
2022-11-11T06:51:44.040Z,100.00
2022-11-11T06:55:00.098Z,100.00
2022-11-11T06:58:17.750Z,100.00
2022-11-11T07:01:34.465Z,100.00
2022-11-11T07:04:50.404Z,100.00
2022-11-11T07:08:10.767Z,100.00
2022-11-11T07:11:27.093Z,100.00
2022-11-11T07:14:43.331Z,100.00
2022-11-11T07:17:59.350Z,100.00
2022-11-11T07:21:15.214Z,100.00
2022-11-11T07:24:31.229Z,100.00
2022-11-11T07:27:47.413Z,100.00
2022-11-11T07:31:03.151Z,100.00
2022-11-11T07:34:19.233Z,100.00
2022-11-11T07:37:36.646Z,100.00
2022-11-11T07:40:52.095Z,100.00
2022-11-11T07:44:08.165Z,100.00
2022-11-11T07:47:23.118Z,100.00
2022-11-11T07:50:39.120Z,100.00
2022-11-11T07:53:55.317Z,100.00
2022-11-11T07:57:11.099Z,100.00
2022-11-11T08:00:27.269Z,100.00
2022-11-11T08:03:52.214Z,100.00
2022-11-11T08:07:08.260Z,100.00
2022-11-11T08:10:23.972Z,100.00
2022-11-11T08:13:40.544Z,100.00
2022-11-11T08:16:56.579Z,100.00
2022-11-11T08:20:13.665Z,100.00
2022-11-11T08:24:22.709Z,100.00
2022-11-11T08:27:10.271Z,100.00
2022-11-11T08:30:26.154Z,100.00
2022-11-11T08:33:42.093Z,100.00
2022-11-11T08:36:58.249Z,100.00
2022-11-11T08:40:15.797Z,99.48
2022-11-11T08:43:37.358Z,98.43
2022-11-11T08:46:53.368Z,99.15
2022-11-11T08:50:09.412Z,99.38
2022-11-11T08:53:26.378Z,98.85
2022-11-11T08:56:43.325Z,97.87
2022-11-11T08:59:58.884Z,97.62
2022-11-11T09:03:14.273Z,98.30
2022-11-11T09:06:30.052Z,95.60
2022-11-11T09:09:46.366Z,95.34
2022-11-11T09:13:02.161Z,94.88
2022-11-11T09:16:18.481Z,94.20
2022-11-11T09:19:34.309Z,94.15
2022-11-11T09:22:50.817Z,92.75
2022-11-11T09:26:06.165Z,92.46
2022-11-11T09:29:22.150Z,92.13
2022-11-11T09:32:38.581Z,91.04
2022-11-11T09:35:54.595Z,91.36
2022-11-11T09:39:10.229Z,90.95
2022-11-11T09:42:39.744Z,91.22
2022-11-11T09:46:01.081Z,92.94
2022-11-11T09:49:41.179Z,91.63
2022-11-11T09:53:18.409Z,91.52
2022-11-11T09:56:34.370Z,91.68
2022-11-11T09:59:52.222Z,90.55
2022-11-11T10:03:21.398Z,91.97
2022-11-11T10:06:37.038Z,90.40
2022-11-11T10:09:58.030Z,89.25
2022-11-11T10:13:46.373Z,87.88
2022-11-11T10:17:23.902Z,88.43
2022-11-11T10:20:43.855Z,89.13
2022-11-11T10:24:00.606Z,90.70
2022-11-11T10:27:19.292Z,89.13
2022-11-11T10:30:35.258Z,88.97
2022-11-11T10:34:02.985Z,89.25
2022-11-11T10:37:21.822Z,87.74
2022-11-11T10:40:50.512Z,89.41
2022-11-11T10:44:28.389Z,88.51
2022-11-11T10:48:06.008Z,87.44
2022-11-11T10:51:22.426Z,87.60
2022-11-11T10:54:45.839Z,87.94
2022-11-11T10:58:27.910Z,86.57
2022-11-11T11:02:05.352Z,84.83
2022-11-11T11:05:32.698Z,83.27
2022-11-11T11:08:53.316Z,83.00
2022-11-11T11:12:39.873Z,84.06
2022-11-11T11:16:00.144Z,84.17
2022-11-11T11:19:35.517Z,84.33
2022-11-11T11:22:59.701Z,84.09
2022-11-11T11:26:15.327Z,83.88
2022-11-11T11:29:37.381Z,84.08
2022-11-11T11:33:05.896Z,82.79
2022-11-11T11:36:21.642Z,83.41
2022-11-11T11:39:38.896Z,82.47
2022-11-11T11:42:54.563Z,82.90
2022-11-11T11:46:21.465Z,83.03
2022-11-11T11:49:59.454Z,81.99
2022-11-11T11:53:50.947Z,81.07
2022-11-11T11:57:20.707Z,77.14
2022-11-11T12:00:40.118Z,74.33
2022-11-11T12:04:19.468Z,76.98
2022-11-11T12:07:50.410Z,79.15
2022-11-11T12:11:27.222Z,79.69
2022-11-11T12:15:02.373Z,78.60
2022-11-11T12:18:24.411Z,79.79
2022-11-11T12:22:03.800Z,81.06
2022-11-11T12:25:28.860Z,81.24
2022-11-11T12:29:07.235Z,81.70
2022-11-11T12:32:23.059Z,79.41
2022-11-11T12:35:49.446Z,75.25
2022-11-11T12:39:34.356Z,76.14
2022-11-11T12:43:02.349Z,77.91
2022-11-11T12:46:46.646Z,79.42
2022-11-11T12:50:24.912Z,80.59
2022-11-11T12:53:53.117Z,80.23
2022-11-11T12:57:21.064Z,80.57
2022-11-11T13:01:01.149Z,82.68
2022-11-11T13:04:42.545Z,81.63
2022-11-11T13:08:01.720Z,80.41
2022-11-11T13:11:42.000Z,80.65
2022-11-11T13:15:17.317Z,80.45
2022-11-11T13:18:44.370Z,80.92
2022-11-11T13:22:27.791Z,79.03
2022-11-11T13:25:52.427Z,78.13
2022-11-11T13:29:52.379Z,78.40
2022-11-11T13:33:20.819Z,73.68
2022-11-11T13:36:43.491Z,73.14
2022-11-11T13:40:02.892Z,71.13
2022-11-11T13:43:28.738Z,69.76
2022-11-11T13:46:49.727Z,71.49
2022-11-11T13:50:23.895Z,74.88
2022-11-11T13:53:39.215Z,75.47
2022-11-11T13:57:02.999Z,75.39
2022-11-11T14:00:18.757Z,75.00
2022-11-11T14:03:43.571Z,76.37
2022-11-11T14:06:59.577Z,75.26
2022-11-11T14:10:18.318Z,74.23
2022-11-11T14:13:34.932Z,73.76
2022-11-11T14:16:53.098Z,72.65
2022-11-11T14:20:30.470Z,71.69
2022-11-11T14:23:46.468Z,73.14
2022-11-11T14:27:16.851Z,74.62
2022-11-11T14:30:38.348Z,73.11
2022-11-11T14:34:32.025Z,72.73
2022-11-11T14:37:54.444Z,73.15
2022-11-11T14:41:41.574Z,72.81
2022-11-11T14:44:57.522Z,72.90
2022-11-11T14:48:51.212Z,72.56
2022-11-11T14:52:30.411Z,71.50
2022-11-11T14:55:52.021Z,71.35
2022-11-11T14:59:08.295Z,70.78
2022-11-11T15:02:31.875Z,71.13
2022-11-11T15:05:55.012Z,70.52
2022-11-11T15:09:28.666Z,70.33
2022-11-11T15:13:06.186Z,71.61
2022-11-11T15:16:34.697Z,71.50
2022-11-11T15:19:59.246Z,72.33
2022-11-11T15:23:35.658Z,72.46
2022-11-11T15:26:54.206Z,71.92
2022-11-11T15:30:17.166Z,72.26
2022-11-11T15:33:54.765Z,72.20
2022-11-11T15:37:12.847Z,71.69
2022-11-11T15:40:51.446Z,72.94
2022-11-11T15:44:19.067Z,73.08
2022-11-11T15:47:35.894Z,71.75
2022-11-11T15:50:51.604Z,72.35
2022-11-11T15:54:11.516Z,71.96
2022-11-11T15:57:30.879Z,72.10
2022-11-11T16:00:46.973Z,73.50
2022-11-11T16:04:02.623Z,73.68
2022-11-11T16:07:20.611Z,73.58
2022-11-11T16:10:37.329Z,73.52
2022-11-11T16:14:07.988Z,72.96
2022-11-11T16:17:26.568Z,73.65
2022-11-11T16:20:52.789Z,73.43
2022-11-11T16:24:31.875Z,73.85
2022-11-11T16:27:47.691Z,73.47
2022-11-11T16:31:36.996Z,74.13
2022-11-11T16:34:55.568Z,74.31
2022-11-11T16:38:12.004Z,74.40
2022-11-11T16:41:33.564Z,74.63
2022-11-11T16:45:00.109Z,74.90
2022-11-11T16:48:39.949Z,74.04
2022-11-11T16:51:55.763Z,74.78
2022-11-11T16:55:31.345Z,76.80
2022-11-11T16:58:54.308Z,78.25
2022-11-11T17:02:19.182Z,79.87
2022-11-11T17:05:57.289Z,78.73
2022-11-11T17:09:41.384Z,77.36
2022-11-11T17:12:57.608Z,76.11
2022-11-11T17:16:13.686Z,77.09
2022-11-11T17:19:31.143Z,77.35
2022-11-11T17:22:56.677Z,77.29
2022-11-11T17:26:12.675Z,79.29
2022-11-11T17:29:28.840Z,80.30
2022-11-11T17:32:46.709Z,81.53
2022-11-11T17:36:02.773Z,81.33
2022-11-11T17:39:18.861Z,81.16
2022-11-11T17:42:34.639Z,81.05
2022-11-11T17:45:51.813Z,80.45
2022-11-11T17:49:07.797Z,80.70
2022-11-11T17:52:24.002Z,79.93
2022-11-11T17:55:39.306Z,80.77
2022-11-11T17:58:55.582Z,80.67
2022-11-11T18:02:12.485Z,80.63
2022-11-11T18:05:28.490Z,79.96
2022-11-11T18:08:44.827Z,78.62
2022-11-11T18:12:00.632Z,81.48
2022-11-11T18:15:17.031Z,85.25
2022-11-11T18:18:32.570Z,84.33
2022-11-11T18:21:48.697Z,81.16
2022-11-11T18:25:04.820Z,79.85
2022-11-11T18:28:20.694Z,78.19
2022-11-11T18:31:37.142Z,78.40
2022-11-11T18:34:52.574Z,82.10
2022-11-11T18:38:08.636Z,83.36
2022-11-11T18:41:24.828Z,83.21
2022-11-11T18:44:40.891Z,80.60
2022-11-11T18:47:56.679Z,82.03
2022-11-11T18:51:14.623Z,82.38
2022-11-11T18:54:30.713Z,83.85
2022-11-11T18:57:46.813Z,83.55
2022-11-11T19:01:13.358Z,83.03
2022-11-11T19:04:28.636Z,83.77
2022-11-11T19:07:47.732Z,81.62
2022-11-11T19:11:04.722Z,81.31
2022-11-11T19:14:22.994Z,82.38
2022-11-11T19:17:40.222Z,83.09
2022-11-11T19:20:55.813Z,83.59
2022-11-11T19:24:11.818Z,83.76
2022-11-11T19:27:27.642Z,83.86
2022-11-11T19:30:43.669Z,83.56
2022-11-11T19:34:00.007Z,84.76
2022-11-11T19:37:19.906Z,84.62
2022-11-11T19:40:37.509Z,85.33
2022-11-11T19:44:01.860Z,84.80
2022-11-11T19:47:18.181Z,87.22
2022-11-11T19:50:33.893Z,88.23
2022-11-11T19:53:54.986Z,86.86
2022-11-11T19:57:13.284Z,86.10
2022-11-11T20:00:29.902Z,84.88
2022-11-11T20:03:45.863Z,85.18
2022-11-11T20:07:01.978Z,85.53
2022-11-11T20:10:17.847Z,83.98
2022-11-11T20:13:37.222Z,85.17
2022-11-11T20:16:55.774Z,86.81
2022-11-11T20:20:11.799Z,88.23
2022-11-11T20:23:28.061Z,87.46
2022-11-11T20:26:43.618Z,86.99
2022-11-11T20:29:59.555Z,85.92
2022-11-11T20:33:14.804Z,84.33
2022-11-11T20:36:30.867Z,84.96
2022-11-11T20:39:47.280Z,84.80
2022-11-11T20:43:04.039Z,82.94
2022-11-11T20:46:20.054Z,83.96
2022-11-11T20:49:35.519Z,84.45
2022-11-11T20:52:52.141Z,81.76
2022-11-11T20:56:09.544Z,82.43
2022-11-11T20:59:24.708Z,84.19
2022-11-11T21:02:40.718Z,84.60
2022-11-11T21:06:03.889Z,83.58
2022-11-11T21:09:20.013Z,83.97
2022-11-11T21:12:35.879Z,84.19
2022-11-11T21:15:51.774Z,83.27
2022-11-11T21:19:06.918Z,80.74
2022-11-11T21:22:22.853Z,83.19
2022-11-11T21:25:38.639Z,84.13
2022-11-11T21:28:53.852Z,84.96
2022-11-11T21:32:08.645Z,84.91
2022-11-11T21:35:25.201Z,84.75
2022-11-11T21:38:42.207Z,83.32
2022-11-11T21:41:57.681Z,83.85
2022-11-11T21:45:12.778Z,85.37
2022-11-11T21:48:29.277Z,86.25
2022-11-11T21:51:44.755Z,87.85
2022-11-11T21:55:00.818Z,90.97
2022-11-11T21:58:16.790Z,89.34
2022-11-11T22:01:37.544Z,86.56
2022-11-11T22:04:54.068Z,84.69
2022-11-11T22:08:09.860Z,85.27
2022-11-11T22:11:27.411Z,85.18
2022-11-11T22:14:43.069Z,84.28
2022-11-11T22:17:58.859Z,84.04
2022-11-11T22:21:20.753Z,84.05
2022-11-11T22:24:36.598Z,85.13
2022-11-11T22:27:53.197Z,85.53
2022-11-11T22:31:12.531Z,85.90
2022-11-11T22:34:27.704Z,85.55
2022-11-11T22:37:43.099Z,87.08
2022-11-11T22:41:07.071Z,87.46
2022-11-11T22:44:22.555Z,86.85
2022-11-11T22:47:37.809Z,86.34
2022-11-11T22:50:53.726Z,86.48
2022-11-11T22:54:10.095Z,85.89
2022-11-11T22:57:30.677Z,84.09
2022-11-11T23:00:45.924Z,85.03
2022-11-11T23:04:03.017Z,85.05
2022-11-11T23:07:19.156Z,85.18
2022-11-11T23:10:35.046Z,84.91
2022-11-11T23:13:50.802Z,85.04
2022-11-11T23:17:06.997Z,85.82
2022-11-11T23:20:22.964Z,87.69
2022-11-11T23:23:39.092Z,87.40
2022-11-11T23:26:54.757Z,87.30
2022-11-11T23:30:10.514Z,85.18
2022-11-11T23:33:25.879Z,88.97
2022-11-11T23:36:41.062Z,89.47
2022-11-11T23:39:57.001Z,89.08
2022-11-11T23:43:12.985Z,87.36
2022-11-11T23:46:28.926Z,89.53
2022-11-11T23:49:44.605Z,87.65
2022-11-11T23:52:59.742Z,84.96
2022-11-11T23:56:15.856Z,86.58
2022-11-11T23:59:32.190Z,86.72
